Terminal Aerodrome Forecast
Issued by NWS

Home | Current Version | Previous Version | Text Only | Print | Product List | Glossary On
Versions: 1 2 3 4 5 6 7 8 9 10 11 12 13 14
239
FTAK31 PAJN 202337
TAFAPG
TAF
PAPG 202337Z 2100/2124 VRB05KT P6SM FEW020 SCT045
      TEMPO 2100/2104 6SM -SHRA BKN020 OVC035
     FM210900 14005KT P6SM VCSH BKN040
     FM211800 10010KT 6SM -RA SCT025 OVC050 WS020/12030KT
      AMD LTD TO CLD VIS AND WIND 2106/2115=

USA.gov is the U.S. government's official web portal to all federal, state and local government web resources and services.